N121SL KSDF-KRFD
Flight info
| Callsign | N121SL |
|---|---|
| Flight time | 0h 54m |
| Altitude | 32000 |
| Route | SPILR1 BNGIN DCT DECEE DCT MACES QUOTE1 |
| Aircraft | A346/H-SDE2E3FGHIJ3J4J5M1RWXY/LB1D1 |
Departure
| Time | 2026-04-29 23:31 |
|---|---|
| Airport | Louisville Muhammad Ali International Airport (KSDF) |
Arrival
| Time | 2026-04-30 00:26 |
|---|---|
| Airport | Chicago Rockford International Airport (KRFD) |
| Time | Latitude | Longitude | Altitude | Speed | Heading |
|---|---|---|---|---|---|
| 2026-04-29 23:10 | 38.18267 | -85.74225 | 497 ft | 0 kts | 142° |
| 2026-04-29 23:16 | 38.18279 | -85.74236 | 489 ft | 1 kts | 142° |
| 2026-04-29 23:16 | 38.18300 | -85.74256 | 491 ft | 2 kts | 142° |
| 2026-04-29 23:16 | 38.18318 | -85.74275 | 487 ft | 3 kts | 142° |
| 2026-04-29 23:17 | 38.18320 | -85.74276 | 487 ft | 0 kts | 142° |
| 2026-04-29 23:18 | 38.18319 | -85.74276 | 487 ft | 2 kts | 142° |
| 2026-04-29 23:18 | 38.18280 | -85.74267 | 486 ft | 8 kts | 192° |
| 2026-04-29 23:18 | 38.18215 | -85.74289 | 491 ft | 11 kts | 182° |
| 2026-04-29 23:18 | 38.18173 | -85.74283 | 492 ft | 6 kts | 167° |
| 2026-04-29 23:19 | 38.18128 | -85.74257 | 493 ft | 9 kts | 148° |
| 2026-04-29 23:19 | 38.18115 | -85.74247 | 487 ft | 0 kts | 148° |
| 2026-04-29 23:26 | 38.18114 | -85.74247 | 497 ft | 0 kts | 148° |
| 2026-04-29 23:26 | 38.18101 | -85.74237 | 487 ft | 10 kts | 149° |
| 2026-04-29 23:26 | 38.18026 | -85.74187 | 488 ft | 13 kts | 154° |
| 2026-04-29 23:27 | 38.17953 | -85.74107 | 486 ft | 15 kts | 116° |
| 2026-04-29 23:27 | 38.17912 | -85.73971 | 488 ft | 18 kts | 110° |
| 2026-04-29 23:27 | 38.17863 | -85.73809 | 490 ft | 22 kts | 112° |
| 2026-04-29 23:27 | 38.17798 | -85.73607 | 486 ft | 25 kts | 112° |
| 2026-04-29 23:28 | 38.17730 | -85.73396 | 488 ft | 27 kts | 112° |
| 2026-04-29 23:28 | 38.17659 | -85.73172 | 487 ft | 28 kts | 112° |
| 2026-04-29 23:28 | 38.17582 | -85.72944 | 488 ft | 28 kts | 131° |
| 2026-04-29 23:28 | 38.17392 | -85.72836 | 491 ft | 33 kts | 163° |
| 2026-04-29 23:29 | 38.17166 | -85.72759 | 488 ft | 34 kts | 166° |
| 2026-04-29 23:29 | 38.16938 | -85.72689 | 491 ft | 34 kts | 166° |
| 2026-04-29 23:29 | 38.16706 | -85.72607 | 488 ft | 35 kts | 164° |
| 2026-04-29 23:29 | 38.16516 | -85.72539 | 491 ft | 21 kts | 164° |
| 2026-04-29 23:30 | 38.16456 | -85.72507 | 491 ft | 0 kts | 131° |
| 2026-04-29 23:30 | 38.16453 | -85.72497 | 490 ft | 6 kts | 112° |
| 2026-04-29 23:30 | 38.16466 | -85.72400 | 486 ft | 14 kts | 39° |
| 2026-04-29 23:31 | 38.16571 | -85.72404 | 489 ft | 17 kts | 346° |
| 2026-04-29 23:31 | 38.16840 | -85.72492 | 486 ft | 79 kts | 345° |
| 2026-04-29 23:31 | 38.17623 | -85.72762 | 496 ft | 151 kts | 344° |
| 2026-04-29 23:31 | 38.18665 | -85.73093 | 1309 ft | 139 kts | 341° |
| 2026-04-29 23:32 | 38.19574 | -85.73397 | 2193 ft | 142 kts | 342° |
| 2026-04-29 23:32 | 38.20581 | -85.73741 | 2786 ft | 155 kts | 342° |
| 2026-04-29 23:32 | 38.21667 | -85.74114 | 3413 ft | 170 kts | 342° |
| 2026-04-29 23:32 | 38.22870 | -85.74529 | 4060 ft | 187 kts | 342° |
| 2026-04-29 23:33 | 38.24165 | -85.74985 | 4749 ft | 204 kts | 343° |
| 2026-04-29 23:33 | 38.25599 | -85.75486 | 5434 ft | 223 kts | 342° |
| 2026-04-29 23:33 | 38.27155 | -85.76025 | 6028 ft | 239 kts | 342° |
| 2026-04-29 23:33 | 38.28808 | -85.76589 | 6542 ft | 255 kts | 342° |
| 2026-04-29 23:34 | 38.30550 | -85.77175 | 7294 ft | 261 kts | 341° |
| 2026-04-29 23:34 | 38.32312 | -85.77806 | 8133 ft | 263 kts | 336° |
| 2026-04-29 23:34 | 38.34013 | -85.78681 | 8963 ft | 263 kts | 328° |
| 2026-04-29 23:34 | 38.35616 | -85.79766 | 9816 ft | 265 kts | 324° |
| 2026-04-29 23:35 | 38.37243 | -85.80934 | 10543 ft | 271 kts | 323° |
| 2026-04-29 23:35 | 38.38936 | -85.82170 | 10997 ft | 288 kts | 323° |
| 2026-04-29 23:35 | 38.40710 | -85.83464 | 11424 ft | 305 kts | 323° |
| 2026-04-29 23:35 | 38.42620 | -85.84852 | 11788 ft | 324 kts | 324° |
| 2026-04-29 23:36 | 38.44636 | -85.86310 | 12152 ft | 342 kts | 324° |
| 2026-04-29 23:36 | 38.46756 | -85.87838 | 12604 ft | 356 kts | 324° |
| 2026-04-29 23:36 | 38.48937 | -85.89399 | 13382 ft | 359 kts | 324° |
| 2026-04-29 23:36 | 38.51123 | -85.90966 | 14192 ft | 361 kts | 324° |
| 2026-04-29 23:37 | 38.53424 | -85.92369 | 14937 ft | 369 kts | 329° |
| 2026-04-29 23:37 | 38.55792 | -85.93606 | 15695 ft | 372 kts | 330° |
| 2026-04-29 23:37 | 38.58182 | -85.94827 | 16777 ft | 364 kts | 330° |
| 2026-04-29 23:37 | 38.60512 | -85.96027 | 17895 ft | 358 kts | 329° |
| 2026-04-29 23:38 | 38.62830 | -85.97240 | 18645 ft | 360 kts | 329° |
| 2026-04-29 23:38 | 38.65133 | -85.98461 | 19197 ft | 365 kts | 329° |
| 2026-04-29 23:38 | 38.67494 | -85.99719 | 19785 ft | 369 kts | 329° |
| 2026-04-29 23:38 | 38.69876 | -86.00991 | 20383 ft | 372 kts | 329° |
| 2026-04-29 23:39 | 38.72280 | -86.02276 | 20987 ft | 376 kts | 328° |
| 2026-04-29 23:39 | 38.74717 | -86.03582 | 21591 ft | 380 kts | 328° |
| 2026-04-29 23:39 | 38.77142 | -86.04882 | 22181 ft | 383 kts | 328° |
| 2026-04-29 23:39 | 38.79617 | -86.06210 | 22782 ft | 387 kts | 328° |
| 2026-04-29 23:40 | 38.82120 | -86.07552 | 23429 ft | 391 kts | 328° |
| 2026-04-29 23:40 | 38.84653 | -86.08912 | 24064 ft | 394 kts | 328° |
| 2026-04-29 23:40 | 38.87174 | -86.10265 | 24707 ft | 397 kts | 328° |
| 2026-04-29 23:40 | 38.89736 | -86.11641 | 25435 ft | 399 kts | 327° |
| 2026-04-29 23:41 | 38.92318 | -86.13031 | 26150 ft | 401 kts | 327° |
| 2026-04-29 23:41 | 38.94905 | -86.14426 | 26855 ft | 403 kts | 327° |
| 2026-04-29 23:41 | 38.97469 | -86.15811 | 27538 ft | 406 kts | 326° |
| 2026-04-29 23:41 | 39.00089 | -86.17228 | 28250 ft | 408 kts | 326° |
| 2026-04-29 23:42 | 39.02722 | -86.18654 | 28946 ft | 410 kts | 326° |
| 2026-04-29 23:42 | 39.05366 | -86.20088 | 29652 ft | 413 kts | 326° |
| 2026-04-29 23:42 | 39.07995 | -86.21517 | 30284 ft | 415 kts | 326° |
| 2026-04-29 23:42 | 39.10672 | -86.22975 | 30813 ft | 418 kts | 326° |
| 2026-04-29 23:43 | 39.13366 | -86.24443 | 31326 ft | 422 kts | 326° |
| 2026-04-29 23:43 | 39.16087 | -86.25926 | 31799 ft | 426 kts | 326° |
| 2026-04-29 23:43 | 39.18844 | -86.27431 | 32001 ft | 435 kts | 326° |
| 2026-04-29 23:43 | 39.21664 | -86.28971 | 31988 ft | 440 kts | 326° |
| 2026-04-29 23:44 | 39.27306 | -86.32039 | 31995 ft | 443 kts | 327° |
| 2026-04-29 23:44 | 39.33016 | -86.35149 | 31999 ft | 444 kts | 327° |
| 2026-04-29 23:45 | 39.38713 | -86.38260 | 32002 ft | 443 kts | 327° |
| 2026-04-29 23:45 | 39.44378 | -86.41361 | 32003 ft | 444 kts | 327° |
| 2026-04-29 23:46 | 39.50088 | -86.44494 | 32001 ft | 445 kts | 327° |
| 2026-04-29 23:46 | 39.55769 | -86.47617 | 32005 ft | 445 kts | 327° |
| 2026-04-29 23:47 | 39.61491 | -86.50763 | 32006 ft | 445 kts | 327° |
| 2026-04-29 23:47 | 39.67174 | -86.53893 | 32008 ft | 446 kts | 327° |
| 2026-04-29 23:48 | 39.72898 | -86.57054 | 32024 ft | 446 kts | 327° |
| 2026-04-29 23:48 | 39.78598 | -86.60214 | 32025 ft | 446 kts | 327° |
| 2026-04-29 23:49 | 39.84326 | -86.63396 | 32024 ft | 446 kts | 327° |
| 2026-04-29 23:49 | 39.90025 | -86.66568 | 32021 ft | 446 kts | 326° |
| 2026-04-29 23:50 | 39.95507 | -86.70227 | 32016 ft | 436 kts | 320° |
| 2026-04-29 23:50 | 40.00450 | -86.74518 | 32017 ft | 417 kts | 314° |
| 2026-04-29 23:51 | 40.02711 | -86.76859 | 32022 ft | 411 kts | 311° |
| 2026-04-29 23:51 | 40.06855 | -86.81935 | 32023 ft | 404 kts | 306° |
| 2026-04-29 23:52 | 40.10613 | -86.87332 | 32027 ft | 403 kts | 304° |
| 2026-04-29 23:52 | 40.14361 | -86.92806 | 32028 ft | 403 kts | 304° |
| 2026-04-29 23:53 | 40.18083 | -86.98262 | 32022 ft | 403 kts | 304° |
| 2026-04-29 23:53 | 40.21828 | -87.03765 | 32022 ft | 404 kts | 304° |
| 2026-04-29 23:54 | 40.25560 | -87.09261 | 32023 ft | 409 kts | 304° |
| 2026-04-29 23:54 | 40.29370 | -87.14885 | 32024 ft | 415 kts | 304° |
| 2026-04-29 23:55 | 40.33138 | -87.20438 | 32022 ft | 401 kts | 304° |
| 2026-04-29 23:55 | 40.36835 | -87.25909 | 32026 ft | 401 kts | 304° |
| 2026-04-29 23:56 | 40.40549 | -87.31419 | 32026 ft | 402 kts | 304° |
| 2026-04-29 23:56 | 40.44243 | -87.36909 | 32033 ft | 403 kts | 304° |
| 2026-04-29 23:57 | 40.47967 | -87.42450 | 32033 ft | 404 kts | 304° |
| 2026-04-29 23:57 | 40.51673 | -87.47976 | 32034 ft | 405 kts | 304° |
| 2026-04-29 23:58 | 40.54784 | -87.52622 | 32031 ft | 405 kts | 305° |
| 2026-04-29 23:58 | 40.59131 | -87.59126 | 32033 ft | 406 kts | 305° |
| 2026-04-29 23:59 | 40.62248 | -87.63796 | 32023 ft | 407 kts | 305° |
| 2026-04-29 23:59 | 40.65992 | -87.69417 | 32034 ft | 408 kts | 305° |
| 2026-04-30 00:00 | 40.69742 | -87.75058 | 32039 ft | 408 kts | 305° |
| 2026-04-30 00:00 | 40.73498 | -87.80717 | 32038 ft | 409 kts | 305° |
| 2026-04-30 00:01 | 40.77220 | -87.86336 | 32042 ft | 409 kts | 305° |
| 2026-04-30 00:01 | 40.80980 | -87.92023 | 32045 ft | 410 kts | 305° |
| 2026-04-30 00:02 | 40.84715 | -87.97682 | 32051 ft | 410 kts | 305° |
| 2026-04-30 00:02 | 40.88474 | -88.03389 | 32054 ft | 411 kts | 305° |
| 2026-04-30 00:03 | 40.92191 | -88.09038 | 31887 ft | 405 kts | 305° |
| 2026-04-30 00:03 | 40.94033 | -88.11836 | 31530 ft | 398 kts | 305° |
| 2026-04-30 00:03 | 40.95835 | -88.14575 | 31092 ft | 390 kts | 305° |
| 2026-04-30 00:03 | 40.97593 | -88.17247 | 30652 ft | 378 kts | 304° |
| 2026-04-30 00:04 | 40.99313 | -88.19875 | 30347 ft | 376 kts | 304° |
| 2026-04-30 00:04 | 41.00997 | -88.22454 | 29976 ft | 373 kts | 304° |
| 2026-04-30 00:04 | 41.02704 | -88.25072 | 29484 ft | 374 kts | 304° |
| 2026-04-30 00:04 | 41.04403 | -88.27675 | 29092 ft | 368 kts | 304° |
| 2026-04-30 00:05 | 41.06080 | -88.30247 | 28737 ft | 366 kts | 304° |
| 2026-04-30 00:05 | 41.07730 | -88.32776 | 27828 ft | 360 kts | 304° |
| 2026-04-30 00:05 | 41.09330 | -88.35230 | 27527 ft | 349 kts | 304° |
| 2026-04-30 00:05 | 41.10905 | -88.37646 | 26966 ft | 343 kts | 304° |
| 2026-04-30 00:06 | 41.12448 | -88.40017 | 26613 ft | 338 kts | 304° |
| 2026-04-30 00:06 | 41.13991 | -88.42398 | 26249 ft | 339 kts | 304° |
| 2026-04-30 00:06 | 41.15508 | -88.44739 | 25879 ft | 337 kts | 304° |
| 2026-04-30 00:06 | 41.17040 | -88.47101 | 25529 ft | 336 kts | 304° |
| 2026-04-30 00:07 | 41.18571 | -88.49465 | 25116 ft | 335 kts | 304° |
| 2026-04-30 00:07 | 41.20091 | -88.51811 | 24715 ft | 332 kts | 304° |
| 2026-04-30 00:07 | 41.21578 | -88.54109 | 24328 ft | 330 kts | 304° |
| 2026-04-30 00:07 | 41.23077 | -88.56424 | 23929 ft | 329 kts | 304° |
| 2026-04-30 00:08 | 41.24569 | -88.58729 | 23545 ft | 327 kts | 304° |
| 2026-04-30 00:08 | 41.26052 | -88.61020 | 23098 ft | 325 kts | 305° |
| 2026-04-30 00:08 | 41.27514 | -88.63281 | 22700 ft | 324 kts | 305° |
| 2026-04-30 00:08 | 41.28983 | -88.65554 | 22311 ft | 323 kts | 305° |
| 2026-04-30 00:09 | 41.30449 | -88.67823 | 21920 ft | 322 kts | 305° |
| 2026-04-30 00:09 | 41.31906 | -88.70085 | 21522 ft | 321 kts | 305° |
| 2026-04-30 00:09 | 41.33360 | -88.72347 | 21128 ft | 319 kts | 305° |
| 2026-04-30 00:09 | 41.34784 | -88.74577 | 20711 ft | 318 kts | 305° |
| 2026-04-30 00:10 | 41.36222 | -88.76830 | 20303 ft | 317 kts | 305° |
| 2026-04-30 00:10 | 41.37172 | -88.78317 | 20057 ft | 316 kts | 306° |
| 2026-04-30 00:10 | 41.38586 | -88.80528 | 19645 ft | 315 kts | 306° |
| 2026-04-30 00:10 | 41.40009 | -88.82752 | 19251 ft | 315 kts | 306° |
| 2026-04-30 00:11 | 41.41434 | -88.84979 | 18855 ft | 314 kts | 306° |
| 2026-04-30 00:11 | 41.42852 | -88.87197 | 18475 ft | 313 kts | 306° |
| 2026-04-30 00:11 | 41.44269 | -88.89412 | 18042 ft | 312 kts | 307° |
| 2026-04-30 00:11 | 41.45676 | -88.91614 | 17634 ft | 310 kts | 307° |
| 2026-04-30 00:12 | 41.47061 | -88.93782 | 17264 ft | 309 kts | 307° |
| 2026-04-30 00:12 | 41.48457 | -88.95968 | 16892 ft | 308 kts | 307° |
| 2026-04-30 00:12 | 41.49849 | -88.98143 | 16546 ft | 306 kts | 308° |
| 2026-04-30 00:12 | 41.51232 | -89.00305 | 16186 ft | 305 kts | 308° |
| 2026-04-30 00:13 | 41.52591 | -89.02436 | 15830 ft | 304 kts | 308° |
| 2026-04-30 00:13 | 41.53961 | -89.04585 | 15472 ft | 302 kts | 308° |
| 2026-04-30 00:13 | 41.55321 | -89.06720 | 15118 ft | 300 kts | 308° |
| 2026-04-30 00:13 | 41.56672 | -89.08845 | 14760 ft | 299 kts | 308° |
| 2026-04-30 00:14 | 41.58017 | -89.10961 | 14413 ft | 297 kts | 309° |
| 2026-04-30 00:14 | 41.59342 | -89.13047 | 14126 ft | 296 kts | 309° |
| 2026-04-30 00:14 | 41.60680 | -89.15155 | 14037 ft | 296 kts | 309° |
| 2026-04-30 00:14 | 41.62010 | -89.17252 | 13908 ft | 295 kts | 309° |
| 2026-04-30 00:15 | 41.63313 | -89.19305 | 13530 ft | 280 kts | 309° |
| 2026-04-30 00:15 | 41.64543 | -89.21248 | 13519 ft | 271 kts | 309° |
| 2026-04-30 00:15 | 41.65791 | -89.23119 | 13477 ft | 272 kts | 317° |
| 2026-04-30 00:15 | 41.67465 | -89.24309 | 13428 ft | 278 kts | 342° |
| 2026-04-30 00:16 | 41.69387 | -89.24413 | 12851 ft | 280 kts | 6° |
| 2026-04-30 00:16 | 41.71278 | -89.23649 | 12032 ft | 285 kts | 15° |
| 2026-04-30 00:16 | 41.73123 | -89.22682 | 11300 ft | 282 kts | 17° |
| 2026-04-30 00:16 | 41.74904 | -89.21722 | 10591 ft | 275 kts | 17° |
| 2026-04-30 00:17 | 41.76674 | -89.20776 | 9621 ft | 271 kts | 17° |
| 2026-04-30 00:17 | 41.78425 | -89.19859 | 8593 ft | 266 kts | 17° |
| 2026-04-30 00:17 | 41.80139 | -89.18971 | 7632 ft | 262 kts | 17° |
| 2026-04-30 00:17 | 41.81809 | -89.18114 | 6695 ft | 258 kts | 17° |
| 2026-04-30 00:18 | 41.83475 | -89.17264 | 5810 ft | 253 kts | 17° |
| 2026-04-30 00:18 | 41.85121 | -89.16427 | 5233 ft | 251 kts | 17° |
| 2026-04-30 00:18 | 41.86761 | -89.15594 | 5016 ft | 252 kts | 17° |
| 2026-04-30 00:18 | 41.88383 | -89.14767 | 5012 ft | 251 kts | 17° |
| 2026-04-30 00:19 | 41.89948 | -89.13887 | 5057 ft | 236 kts | 20° |
| 2026-04-30 00:19 | 41.91483 | -89.12988 | 5047 ft | 242 kts | 15° |
| 2026-04-30 00:19 | 41.93104 | -89.12414 | 5019 ft | 239 kts | 6° |
| 2026-04-30 00:19 | 41.94703 | -89.12132 | 5006 ft | 224 kts | 2° |
| 2026-04-30 00:20 | 41.96188 | -89.11952 | 4991 ft | 209 kts | 1° |
| 2026-04-30 00:20 | 41.97577 | -89.11792 | 5026 ft | 190 kts | 1° |
| 2026-04-30 00:20 | 41.98852 | -89.11638 | 4913 ft | 180 kts | 0° |
| 2026-04-30 00:20 | 42.00124 | -89.11485 | 4416 ft | 188 kts | 1° |
| 2026-04-30 00:21 | 42.01445 | -89.11322 | 3884 ft | 190 kts | 2° |
| 2026-04-30 00:21 | 42.02696 | -89.11159 | 3613 ft | 174 kts | 2° |
| 2026-04-30 00:21 | 42.03845 | -89.11007 | 3399 ft | 160 kts | 2° |
| 2026-04-30 00:21 | 42.04953 | -89.10863 | 3249 ft | 158 kts | 2° |
| 2026-04-30 00:22 | 42.06025 | -89.10726 | 3059 ft | 155 kts | 3° |
| 2026-04-30 00:22 | 42.07099 | -89.10586 | 2877 ft | 155 kts | 3° |
| 2026-04-30 00:22 | 42.08169 | -89.10449 | 2675 ft | 151 kts | 4° |
| 2026-04-30 00:22 | 42.09176 | -89.10318 | 2473 ft | 139 kts | 4° |
| 2026-04-30 00:23 | 42.10121 | -89.10197 | 2297 ft | 136 kts | 4° |
| 2026-04-30 00:23 | 42.11050 | -89.10077 | 2144 ft | 136 kts | 3° |
| 2026-04-30 00:23 | 42.11991 | -89.09957 | 1972 ft | 135 kts | 3° |
| 2026-04-30 00:23 | 42.12927 | -89.09837 | 1798 ft | 135 kts | 3° |
| 2026-04-30 00:24 | 42.13859 | -89.09719 | 1607 ft | 134 kts | 5° |
| 2026-04-30 00:24 | 42.14793 | -89.09595 | 1402 ft | 134 kts | 3° |
| 2026-04-30 00:24 | 42.15711 | -89.09478 | 1233 ft | 134 kts | 3° |
| 2026-04-30 00:24 | 42.16635 | -89.09359 | 1066 ft | 133 kts | 2° |
| 2026-04-30 00:25 | 42.17555 | -89.09240 | 907 ft | 132 kts | 1° |
| 2026-04-30 00:25 | 42.18454 | -89.09126 | 740 ft | 130 kts | 1° |
| 2026-04-30 00:25 | 42.19223 | -89.09041 | 739 ft | 83 kts | 5° |
| 2026-04-30 00:25 | 42.19728 | -89.08974 | 748 ft | 65 kts | 5° |
| 2026-04-30 00:26 | 42.20082 | -89.08928 | 750 ft | 32 kts | 1° |
| 2026-04-30 00:26 | 42.20134 | -89.09094 | 748 ft | 19 kts | 245° |
| 2026-04-30 00:26 | 42.20115 | -89.09151 | 750 ft | 0 kts | 245° |
| 2026-04-30 00:26 | 42.20108 | -89.09170 | 748 ft | 4 kts | 245° |
| 2026-04-30 00:27 | 42.20091 | -89.09222 | 749 ft | 9 kts | 245° |
| 2026-04-30 00:27 | 42.20044 | -89.09358 | 751 ft | 19 kts | 245° |
| 2026-04-30 00:27 | 42.19982 | -89.09537 | 749 ft | 23 kts | 245° |
| 2026-04-30 00:27 | 42.19909 | -89.09744 | 749 ft | 26 kts | 245° |
| 2026-04-30 00:28 | 42.19827 | -89.09983 | 751 ft | 29 kts | 245° |
| 2026-04-30 00:28 | 42.19739 | -89.10245 | 752 ft | 32 kts | 246° |
| 2026-04-30 00:28 | 42.19704 | -89.10451 | 751 ft | 17 kts | 297° |
| 2026-04-30 00:28 | 42.19793 | -89.10515 | 752 ft | 17 kts | 343° |
| 2026-04-30 00:29 | 42.19902 | -89.10573 | 752 ft | 11 kts | 336° |
| 2026-04-30 00:29 | 42.19910 | -89.10578 | 752 ft | 0 kts | 336° |
| 2026-04-30 00:34 | 42.19800 | -89.10570 | 751 ft | 0 kts | 64° |
| 2026-04-30 00:34 | 42.19813 | -89.10579 | 751 ft | 0 kts | 64° |